sensor_id;sensor_type;location;lat;lon;timestamp;pressure;altitude;pressure_sealevel;temperature;humidity
22031;BME280;11179;52.106;21.024;2023-06-26T00:00:12;100380.84;;;15.37;64.05
22031;BME280;11179;52.106;21.024;2023-06-26T00:02:37;100378.34;;;15.35;64.00
22031;BME280;11179;52.106;21.024;2023-06-26T00:05:04;100387.22;;;15.32;63.85
22031;BME280;11179;52.106;21.024;2023-06-26T00:07:29;100378.44;;;15.30;63.90
22031;BME280;11179;52.106;21.024;2023-06-26T00:09:56;100377.88;;;15.28;63.83
22031;BME280;11179;52.106;21.024;2023-06-26T00:12:22;100376.50;;;15.26;63.53
22031;BME280;11179;52.106;21.024;2023-06-26T00:14:47;100378.19;;;15.22;63.71
22031;BME280;11179;52.106;21.024;2023-06-26T00:17:12;100376.25;;;15.22;63.72
22031;BME280;11179;52.106;21.024;2023-06-26T00:19:38;100373.78;;;15.21;63.73
22031;BME280;11179;52.106;21.024;2023-06-26T00:22:03;100386.25;;;15.18;63.64
22031;BME280;11179;52.106;21.024;2023-06-26T00:24:28;100382.97;;;15.16;63.43
22031;BME280;11179;52.106;21.024;2023-06-26T00:26:54;100382.41;;;15.14;63.50
22031;BME280;11179;52.106;21.024;2023-06-26T00:29:19;100380.22;;;15.11;63.69
22031;BME280;11179;52.106;21.024;2023-06-26T00:31:44;100382.72;;;15.07;63.47
22031;BME280;11179;52.106;21.024;2023-06-26T00:34:10;100381.97;;;15.02;63.67
22031;BME280;11179;52.106;21.024;2023-06-26T00:36:35;100381.13;;;15.01;63.68
22031;BME280;11179;52.106;21.024;2023-06-26T00:39:00;100385.28;;;14.99;63.79
22031;BME280;11179;52.106;21.024;2023-06-26T00:41:26;100380.63;;;14.94;63.87
22031;BME280;11179;52.106;21.024;2023-06-26T00:43:51;100383.66;;;14.93;63.98
22031;BME280;11179;52.106;21.024;2023-06-26T00:46:16;100377.06;;;14.89;63.99
22031;BME280;11179;52.106;21.024;2023-06-26T00:48:43;100383.44;;;14.89;63.95
22031;BME280;11179;52.106;21.024;2023-06-26T00:51:09;100381.50;;;14.85;64.23
22031;BME280;11179;52.106;21.024;2023-06-26T00:53:35;100369.38;;;14.81;64.24
22031;BME280;11179;52.106;21.024;2023-06-26T00:56:01;100378.78;;;14.80;64.44
22031;BME280;11179;52.106;21.024;2023-06-26T00:58:27;100371.34;;;14.75;64.24
22031;BME280;11179;52.106;21.024;2023-06-26T01:00:53;100372.47;;;14.74;64.33
22031;BME280;11179;52.106;21.024;2023-06-26T01:03:25;100367.78;;;14.69;64.45
22031;BME280;11179;52.106;21.024;2023-06-26T01:05:56;100364.75;;;14.66;64.46
22031;BME280;11179;52.106;21.024;2023-06-26T01:08:23;100366.69;;;14.65;64.37
22031;BME280;11179;52.106;21.024;2023-06-26T01:10:49;100368.38;;;14.61;64.38
22031;BME280;11179;52.106;21.024;2023-06-26T01:13:15;100370.03;;;14.57;64.70
22031;BME280;11179;52.106;21.024;2023-06-26T01:15:41;100359.56;;;14.54;65.00
22031;BME280;11179;52.106;21.024;2023-06-26T01:18:07;100363.97;;;14.55;64.95
22031;BME280;11179;52.106;21.024;2023-06-26T01:20:35;100365.63;;;14.51;65.10
22031;BME280;11179;52.106;21.024;2023-06-26T01:23:23;100358.19;;;14.52;65.19
22031;BME280;11179;52.106;21.024;2023-06-26T01:25:56;100361.28;;;14.45;65.31
22031;BME280;11179;52.106;21.024;2023-06-26T01:28:27;100358.53;;;14.40;65.22
22031;BME280;11179;52.106;21.024;2023-06-26T01:30:53;100350.81;;;14.37;65.29
22031;BME280;11179;52.106;21.024;2023-06-26T01:33:19;100366.03;;;14.34;65.52
22031;BME280;11179;52.106;21.024;2023-06-26T01:35:45;100359.97;;;14.27;65.61
22031;BME280;11179;52.106;21.024;2023-06-26T01:38:19;100346.75;;;14.24;65.70
22031;BME280;11179;52.106;21.024;2023-06-26T01:40:45;100357.53;;;14.21;65.74
22031;BME280;11179;52.106;21.024;2023-06-26T01:43:31;100345.94;;;14.19;66.01
22031;BME280;11179;52.106;21.024;2023-06-26T01:46:16;100344.00;;;14.14;65.80
22031;BME280;11179;52.106;21.024;2023-06-26T01:49:09;100344.28;;;14.18;65.62
22031;BME280;11179;52.106;21.024;2023-06-26T01:51:49;100349.25;;;14.16;65.53
22031;BME280;11179;52.106;21.024;2023-06-26T01:54:21;100354.22;;;14.14;65.60
22031;BME280;11179;52.106;21.024;2023-06-26T01:56:49;100343.75;;;14.11;65.67
22031;BME280;11179;52.106;21.024;2023-06-26T01:59:18;100348.72;;;14.09;65.64
22031;BME280;11179;52.106;21.024;2023-06-26T02:01:44;100339.34;;;14.04;65.56
22031;BME280;11179;52.106;21.024;2023-06-26T02:04:09;100339.09;;;14.01;65.80
22031;BME280;11179;52.106;21.024;2023-06-26T02:06:35;100343.22;;;14.03;65.67
22031;BME280;11179;52.106;21.024;2023-06-26T02:09:00;100338.81;;;14.02;65.81
22031;BME280;11179;52.106;21.024;2023-06-26T02:11:25;100341.03;;;14.00;65.80
22031;BME280;11179;52.106;21.024;2023-06-26T02:13:51;100342.41;;;13.98;65.98
22031;BME280;11179;52.106;21.024;2023-06-26T02:16:16;100346.31;;;13.97;65.74
22031;BME280;11179;52.106;21.024;2023-06-26T02:18:41;100341.34;;;13.94;65.85
22031;BME280;11179;52.106;21.024;2023-06-26T02:21:07;100341.59;;;13.92;66.04
22031;BME280;11179;52.106;21.024;2023-06-26T02:23:32;100331.94;;;13.90;65.94
22031;BME280;11179;52.106;21.024;2023-06-26T02:25:58;100343.00;;;13.90;65.99
22031;BME280;11179;52.106;21.024;2023-06-26T02:28:23;100336.91;;;13.88;66.08
22031;BME280;11179;52.106;21.024;2023-06-26T02:30:48;100342.16;;;13.89;66.31
22031;BME280;11179;52.106;21.024;2023-06-26T02:33:13;100335.00;;;13.88;66.13
22031;BME280;11179;52.106;21.024;2023-06-26T02:35:39;100334.16;;;13.88;66.05
22031;BME280;11179;52.106;21.024;2023-06-26T02:38:04;100335.00;;;13.88;66.12
22031;BME280;11179;52.106;21.024;2023-06-26T02:40:29;100339.41;;;13.89;66.27
22031;BME280;11179;52.106;21.024;2023-06-26T02:42:55;100331.94;;;13.90;66.30
22031;BME280;11179;52.106;21.024;2023-06-26T02:45:20;100329.47;;;13.93;66.46
22031;BME280;11179;52.106;21.024;2023-06-26T02:47:45;100335.25;;;13.97;66.29
22031;BME280;11179;52.106;21.024;2023-06-26T02:50:11;100333.31;;;13.97;65.91
22031;BME280;11179;52.106;21.024;2023-06-26T02:52:36;100325.56;;;13.99;66.21
22031;BME280;11179;52.106;21.024;2023-06-26T02:55:01;100331.06;;;14.04;66.38
22031;BME280;11179;52.106;21.024;2023-06-26T02:57:26;100340.44;;;14.09;66.25
22031;BME280;11179;52.106;21.024;2023-06-26T02:59:52;100331.31;;;14.13;66.15
22031;BME280;11179;52.106;21.024;2023-06-26T03:02:17;100324.38;;;14.16;66.36
22031;BME280;11179;52.106;21.024;2023-06-26T03:04:42;100327.16;;;14.21;66.26
22031;BME280;11179;52.106;21.024;2023-06-26T03:07:08;100324.09;;;14.22;66.04
22031;BME280;11179;52.106;21.024;2023-06-26T03:09:33;100330.97;;;14.30;66.22
22031;BME280;11179;52.106;21.024;2023-06-26T03:11:59;100331.50;;;14.37;66.16
22031;BME280;11179;52.106;21.024;2023-06-26T03:14:24;100338.34;;;14.45;66.09
22031;BME280;11179;52.106;21.024;2023-06-26T03:16:49;100330.25;;;14.53;66.13
22031;BME280;11179;52.106;21.024;2023-06-26T03:19:17;100326.38;;;14.64;66.02
22031;BME280;11179;52.106;21.024;2023-06-26T03:21:43;100327.13;;;14.75;65.86
22031;BME280;11179;52.106;21.024;2023-06-26T03:24:08;100331.13;;;14.93;65.76
22031;BME280;11179;52.106;21.024;2023-06-26T03:26:33;100332.56;;;15.19;65.61
22031;BME280;11179;52.106;21.024;2023-06-26T03:28:59;100326.38;;;15.61;65.19
22031;BME280;11179;52.106;21.024;2023-06-26T03:31:24;100331.66;;;16.10;64.68
22031;BME280;11179;52.106;21.024;2023-06-26T03:33:49;100328.41;;;16.46;64.24
22031;BME280;11179;52.106;21.024;2023-06-26T03:36:15;100331.75;;;16.85;64.10
22031;BME280;11179;52.106;21.024;2023-06-26T03:38:40;100330.34;;;17.20;63.75
22031;BME280;11179;52.106;21.024;2023-06-26T03:41:06;100330.88;;;17.55;62.95
22031;BME280;11179;52.106;21.024;2023-06-26T03:43:31;100331.63;;;17.88;62.52
22031;BME280;11179;52.106;21.024;2023-06-26T03:45:56;100326.28;;;18.05;62.06
22031;BME280;11179;52.106;21.024;2023-06-26T03:48:22;100331.41;;;18.25;61.28
22031;BME280;11179;52.106;21.024;2023-06-26T03:50:47;100322.94;;;18.58;60.68
22031;BME280;11179;52.106;21.024;2023-06-26T03:53:13;100327.16;;;18.91;59.56
22031;BME280;11179;52.106;21.024;2023-06-26T03:55:38;100329.94;;;19.27;58.42
22031;BME280;11179;52.106;21.024;2023-06-26T03:58:04;100330.59;;;19.55;57.77
22031;BME280;11179;52.106;21.024;2023-06-26T04:00:30;100320.75;;;19.89;56.99
22031;BME280;11179;52.106;21.024;2023-06-26T04:02:55;100319.59;;;20.21;56.10
22031;BME280;11179;52.106;21.024;2023-06-26T04:05:20;100329.47;;;20.53;54.70
22031;BME280;11179;52.106;21.024;2023-06-26T04:07:49;100323.47;;;20.85;54.26
22031;BME280;11179;52.106;21.024;2023-06-26T04:10:15;100328.06;;;21.16;53.18
22031;BME280;11179;52.106;21.024;2023-06-26T04:12:40;100331.94;;;21.49;53.20
22031;BME280;11179;52.106;21.024;2023-06-26T04:15:06;100326.63;;;21.73;52.02
22031;BME280;11179;52.106;21.024;2023-06-26T04:17:31;100329.00;;;22.01;50.93
22031;BME280;11179;52.106;21.024;2023-06-26T04:19:57;100321.31;;;22.27;50.56
22031;BME280;11179;52.106;21.024;2023-06-26T04:22:22;100332.97;;;22.59;50.25
22031;BME280;11179;52.106;21.024;2023-06-26T04:24:47;100328.97;;;22.89;49.04
22031;BME280;11179;52.106;21.024;2023-06-26T04:27:13;100329.34;;;23.20;48.31
22031;BME280;11179;52.106;21.024;2023-06-26T04:29:41;100331.41;;;23.44;48.01
22031;BME280;11179;52.106;21.024;2023-06-26T04:32:07;100325.56;;;23.70;47.29
22031;BME280;11179;52.106;21.024;2023-06-26T04:34:32;100328.28;;;24.03;46.79
22031;BME280;11179;52.106;21.024;2023-06-26T04:36:59;100330.28;;;24.39;45.79
22031;BME280;11179;52.106;21.024;2023-06-26T04:39:24;100327.84;;;24.62;44.88
22031;BME280;11179;52.106;21.024;2023-06-26T04:41:50;100324.38;;;24.81;44.75
22031;BME280;11179;52.106;21.024;2023-06-26T04:44:15;100321.50;;;25.05;44.30
22031;BME280;11179;52.106;21.024;2023-06-26T04:46:40;100330.09;;;25.24;44.20
22031;BME280;11179;52.106;21.024;2023-06-26T04:49:06;100326.06;;;25.38;43.56
22031;BME280;11179;52.106;21.024;2023-06-26T04:51:31;100328.56;;;25.55;43.49
22031;BME280;11179;52.106;21.024;2023-06-26T04:53:56;100331.78;;;25.85;42.76
22031;BME280;11179;52.106;21.024;2023-06-26T04:56:22;100327.44;;;26.03;42.13
22031;BME280;11179;52.106;21.024;2023-06-26T04:58:47;100326.63;;;26.18;41.42
22031;BME280;11179;52.106;21.024;2023-06-26T05:01:12;100326.44;;;26.27;40.94
22031;BME280;11179;52.106;21.024;2023-06-26T05:03:40;100324.44;;;26.27;40.76
22031;BME280;11179;52.106;21.024;2023-06-26T05:06:06;100323.13;;;26.41;40.35
22031;BME280;11179;52.106;21.024;2023-06-26T05:08:31;100332.28;;;26.53;39.63
22031;BME280;11179;52.106;21.024;2023-06-26T05:10:56;100321.88;;;26.89;39.16
22031;BME280;11179;52.106;21.024;2023-06-26T05:13:24;100328.16;;;27.01;39.09
22031;BME280;11179;52.106;21.024;2023-06-26T05:15:50;100318.13;;;27.04;39.23
22031;BME280;11179;52.106;21.024;2023-06-26T05:18:15;100321.84;;;27.27;38.12
22031;BME280;11179;52.106;21.024;2023-06-26T05:20:41;100324.81;;;27.54;37.98
22031;BME280;11179;52.106;21.024;2023-06-26T05:23:07;100320.69;;;27.93;36.96
22031;BME280;11179;52.106;21.024;2023-06-26T05:25:33;100326.63;;;28.07;36.52
22031;BME280;11179;52.106;21.024;2023-06-26T05:28:01;100322.03;;;28.22;36.94
22031;BME280;11179;52.106;21.024;2023-06-26T05:30:28;100323.69;;;28.53;36.99
22031;BME280;11179;52.106;21.024;2023-06-26T05:32:53;100315.13;;;28.72;36.79
22031;BME280;11179;52.106;21.024;2023-06-26T05:35:22;100316.03;;;29.10;36.06
22031;BME280;11179;52.106;21.024;2023-06-26T05:37:49;100306.66;;;29.36;35.68
22031;BME280;11179;52.106;21.024;2023-06-26T05:40:18;100305.13;;;29.45;35.46
22031;BME280;11179;52.106;21.024;2023-06-26T05:42:44;100314.63;;;29.64;34.92
22031;BME280;11179;52.106;21.024;2023-06-26T05:45:10;100312.81;;;29.82;34.48
22031;BME280;11179;52.106;21.024;2023-06-26T05:47:35;100306.56;;;30.06;34.31
22031;BME280;11179;52.106;21.024;2023-06-26T05:50:01;100308.34;;;30.25;34.26
22031;BME280;11179;52.106;21.024;2023-06-26T05:52:27;100311.75;;;30.52;33.52
22031;BME280;11179;52.106;21.024;2023-06-26T05:54:52;100309.81;;;30.67;33.08
22031;BME280;11179;52.106;21.024;2023-06-26T05:57:18;100300.69;;;30.95;32.92
22031;BME280;11179;52.106;21.024;2023-06-26T05:59:44;100302.78;;;31.08;32.33
22031;BME280;11179;52.106;21.024;2023-06-26T06:02:11;100306.06;;;31.21;31.84
22031;BME280;11179;52.106;21.024;2023-06-26T06:04:36;100301.19;;;31.18;31.61
22031;BME280;11179;52.106;21.024;2023-06-26T06:07:02;100298.75;;;31.20;31.76
22031;BME280;11179;52.106;21.024;2023-06-26T06:09:28;100304.53;;;31.38;31.46
22031;BME280;11179;52.106;21.024;2023-06-26T06:11:53;100295.22;;;31.48;31.15
22031;BME280;11179;52.106;21.024;2023-06-26T06:14:18;100305.75;;;31.40;30.97
22031;BME280;11179;52.106;21.024;2023-06-26T06:16:44;100303.34;;;31.49;31.19
22031;BME280;11179;52.106;21.024;2023-06-26T06:19:09;100294.44;;;31.69;31.34
22031;BME280;11179;52.106;21.024;2023-06-26T06:21:36;100296.09;;;31.77;30.35
22031;BME280;11179;52.106;21.024;2023-06-26T06:24:01;100299.34;;;31.86;29.82
22031;BME280;11179;52.106;21.024;2023-06-26T06:26:27;100297.72;;;31.85;30.17
22031;BME280;11179;52.106;21.024;2023-06-26T06:28:53;100296.13;;;32.09;29.89
22031;BME280;11179;52.106;21.024;2023-06-26T06:31:18;100288.38;;;32.48;28.84
22031;BME280;11179;52.106;21.024;2023-06-26T06:33:43;100286.28;;;32.63;28.60
22031;BME280;11179;52.106;21.024;2023-06-26T06:36:09;100287.09;;;32.63;28.31
22031;BME280;11179;52.106;21.024;2023-06-26T06:38:34;100290.69;;;32.92;28.05
22031;BME280;11179;52.106;21.024;2023-06-26T06:40:59;100285.41;;;32.94;27.92
22031;BME280;11179;52.106;21.024;2023-06-26T06:43:25;100283.31;;;33.13;27.52
22031;BME280;11179;52.106;21.024;2023-06-26T06:45:50;100277.09;;;33.39;27.76
22031;BME280;11179;52.106;21.024;2023-06-26T06:48:15;100290.34;;;33.63;27.09
22031;BME280;11179;52.106;21.024;2023-06-26T06:50:41;100276.84;;;33.78;27.06
22031;BME280;11179;52.106;21.024;2023-06-26T06:53:07;100282.31;;;34.03;26.60
22031;BME280;11179;52.106;21.024;2023-06-26T06:55:32;100278.91;;;34.19;26.30
22031;BME280;11179;52.106;21.024;2023-06-26T06:57:58;100275.59;;;34.27;26.31
22031;BME280;11179;52.106;21.024;2023-06-26T07:00:23;100277.94;;;34.36;26.67
22031;BME280;11179;52.106;21.024;2023-06-26T07:02:48;100273.72;;;34.51;26.00
22031;BME280;11179;52.106;21.024;2023-06-26T07:05:14;100278.03;;;34.70;26.16
22031;BME280;11179;52.106;21.024;2023-06-26T07:07:39;100274.00;;;34.98;25.66
22031;BME280;11179;52.106;21.024;2023-06-26T07:10:09;100272.16;;;35.15;24.83
22031;BME280;11179;52.106;21.024;2023-06-26T07:12:35;100270.84;;;35.23;24.84
22031;BME280;11179;52.106;21.024;2023-06-26T07:15:02;100271.38;;;35.10;24.81
22031;BME280;11179;52.106;21.024;2023-06-26T07:17:29;100273.00;;;35.11;24.57
22031;BME280;11179;52.106;21.024;2023-06-26T07:19:59;100270.38;;;35.28;24.54
22031;BME280;11179;52.106;21.024;2023-06-26T07:22:24;100267.56;;;35.51;24.84
22031;BME280;11179;52.106;21.024;2023-06-26T07:24:50;100257.81;;;35.75;23.63
22031;BME280;11179;52.106;21.024;2023-06-26T07:27:15;100271.06;;;35.89;23.29
22031;BME280;11179;52.106;21.024;2023-06-26T07:29:41;100270.13;;;35.96;23.17
22031;BME280;11179;52.106;21.024;2023-06-26T07:32:07;100260.09;;;36.11;22.17
22031;BME280;11179;52.106;21.024;2023-06-26T07:34:32;100265.47;;;36.29;22.14
22031;BME280;11179;52.106;21.024;2023-06-26T07:36:57;100271.00;;;36.39;22.10
22031;BME280;11179;52.106;21.024;2023-06-26T07:39:23;100261.44;;;36.26;22.30
22031;BME280;11179;52.106;21.024;2023-06-26T07:41:48;100265.91;;;36.27;22.40
22031;BME280;11179;52.106;21.024;2023-06-26T07:44:13;100261.13;;;35.97;23.08
22031;BME280;11179;52.106;21.024;2023-06-26T07:46:39;100263.41;;;35.83;22.56
22031;BME280;11179;52.106;21.024;2023-06-26T07:49:05;100255.72;;;35.79;22.69
22031;BME280;11179;52.106;21.024;2023-06-26T07:51:30;100261.44;;;35.79;23.44
22031;BME280;11179;52.106;21.024;2023-06-26T07:53:55;100256.38;;;36.14;22.23
22031;BME280;11179;52.106;21.024;2023-06-26T07:56:21;100264.09;;;36.37;21.62
22031;BME280;11179;52.106;21.024;2023-06-26T07:58:46;100263.91;;;36.47;21.81
22031;BME280;11179;52.106;21.024;2023-06-26T08:01:11;100264.25;;;36.49;21.89
22031;BME280;11179;52.106;21.024;2023-06-26T08:03:37;100256.91;;;36.72;21.61
22031;BME280;11179;52.106;21.024;2023-06-26T08:06:02;100257.34;;;36.27;21.52
22031;BME280;11179;52.106;21.024;2023-06-26T08:08:28;100258.53;;;36.06;21.94
22031;BME280;11179;52.106;21.024;2023-06-26T08:10:54;100262.56;;;36.09;21.90
22031;BME280;11179;52.106;21.024;2023-06-26T08:13:19;100252.63;;;35.94;22.61
22031;BME280;11179;52.106;21.024;2023-06-26T08:15:44;100257.34;;;36.04;22.53
22031;BME280;11179;52.106;21.024;2023-06-26T08:18:10;100248.28;;;36.32;21.70
22031;BME280;11179;52.106;21.024;2023-06-26T08:20:36;100251.84;;;36.60;21.87
22031;BME280;11179;52.106;21.024;2023-06-26T08:23:03;100256.38;;;36.77;21.33
22031;BME280;11179;52.106;21.024;2023-06-26T08:25:29;100250.19;;;37.02;21.31
22031;BME280;11179;52.106;21.024;2023-06-26T08:27:56;100253.81;;;36.82;21.21
22031;BME280;11179;52.106;21.024;2023-06-26T08:30:22;100253.63;;;36.50;21.46
22031;BME280;11179;52.106;21.024;2023-06-26T08:32:47;100248.63;;;36.58;21.13
22031;BME280;11179;52.106;21.024;2023-06-26T08:35:13;100253.53;;;36.57;20.78
22031;BME280;11179;52.106;21.024;2023-06-26T08:37:38;100246.81;;;36.44;20.37
22031;BME280;11179;52.106;21.024;2023-06-26T08:40:06;100249.56;;;36.71;20.19
22031;BME280;11179;52.106;21.024;2023-06-26T08:42:31;100252.00;;;36.72;20.04
22031;BME280;11179;52.106;21.024;2023-06-26T08:44:56;100255.63;;;36.53;20.02
22031;BME280;11179;52.106;21.024;2023-06-26T08:47:22;100250.13;;;36.42;19.88
22031;BME280;11179;52.106;21.024;2023-06-26T08:49:56;100246.19;;;36.76;19.27
22031;BME280;11179;52.106;21.024;2023-06-26T08:52:30;100244.34;;;36.85;18.75
22031;BME280;11179;52.106;21.024;2023-06-26T08:54:59;100240.28;;;36.43;18.98
22031;BME280;11179;52.106;21.024;2023-06-26T08:57:27;100240.00;;;35.91;19.33
22031;BME280;11179;52.106;21.024;2023-06-26T08:59:53;100237.53;;;35.93;20.16
22031;BME280;11179;52.106;21.024;2023-06-26T09:02:19;100231.25;;;36.25;19.55
22031;BME280;11179;52.106;21.024;2023-06-26T09:04:47;100233.81;;;36.39;19.33
22031;BME280;11179;52.106;21.024;2023-06-26T09:07:13;100234.84;;;36.49;19.48
22031;BME280;11179;52.106;21.024;2023-06-26T09:09:38;100234.53;;;36.67;20.01
22031;BME280;11179;52.106;21.024;2023-06-26T09:12:04;100226.38;;;36.45;19.61
22031;BME280;11179;52.106;21.024;2023-06-26T09:14:29;100227.53;;;36.48;19.36
22031;BME280;11179;52.106;21.024;2023-06-26T09:16:55;100231.34;;;36.22;18.72
22031;BME280;11179;52.106;21.024;2023-06-26T09:19:20;100220.00;;;36.14;18.96
22031;BME280;11179;52.106;21.024;2023-06-26T09:21:49;100223.25;;;36.36;19.18
22031;BME280;11179;52.106;21.024;2023-06-26T09:24:16;100218.72;;;36.39;18.81
22031;BME280;11179;52.106;21.024;2023-06-26T09:26:41;100217.34;;;36.47;19.38
22031;BME280;11179;52.106;21.024;2023-06-26T09:29:08;100216.00;;;36.51;19.25
22031;BME280;11179;52.106;21.024;2023-06-26T09:31:36;100214.13;;;35.78;19.79
22031;BME280;11179;52.106;21.024;2023-06-26T09:34:02;100211.75;;;35.20;20.31
22031;BME280;11179;52.106;21.024;2023-06-26T09:36:31;100216.88;;;35.32;20.33
22031;BME280;11179;52.106;21.024;2023-06-26T09:38:59;100210.31;;;35.04;20.39
22031;BME280;11179;52.106;21.024;2023-06-26T09:41:25;100208.38;;;35.28;20.26
22031;BME280;11179;52.106;21.024;2023-06-26T09:43:50;100215.38;;;35.24;20.63
22031;BME280;11179;52.106;21.024;2023-06-26T09:46:17;100207.31;;;34.88;20.59
22031;BME280;11179;52.106;21.024;2023-06-26T09:48:43;100215.59;;;34.75;20.56
22031;BME280;11179;52.106;21.024;2023-06-26T09:51:09;100213.16;;;35.04;20.18
22031;BME280;11179;52.106;21.024;2023-06-26T09:53:35;100203.38;;;35.36;20.00
22031;BME280;11179;52.106;21.024;2023-06-26T09:56:05;100201.75;;;35.04;20.26
22031;BME280;11179;52.106;21.024;2023-06-26T09:58:32;100208.00;;;34.28;20.80
22031;BME280;11179;52.106;21.024;2023-06-26T10:00:58;100202.28;;;34.31;20.94
22031;BME280;11179;52.106;21.024;2023-06-26T10:03:23;100210.34;;;34.74;20.82
22031;BME280;11179;52.106;21.024;2023-06-26T10:05:49;100202.09;;;35.10;20.37
22031;BME280;11179;52.106;21.024;2023-06-26T10:08:15;100190.63;;;35.14;20.26
22031;BME280;11179;52.106;21.024;2023-06-26T10:10:42;100191.41;;;35.18;20.21
22031;BME280;11179;52.106;21.024;2023-06-26T10:13:14;100192.38;;;35.04;20.39
22031;BME280;11179;52.106;21.024;2023-06-26T10:15:42;100193.31;;;34.97;20.11
22031;BME280;11179;52.106;21.024;2023-06-26T10:18:10;100192.25;;;34.88;20.20
22031;BME280;11179;52.106;21.024;2023-06-26T10:20:36;100188.78;;;34.73;20.57
22031;BME280;11179;52.106;21.024;2023-06-26T10:23:02;100192.94;;;34.27;21.59
22031;BME280;11179;52.106;21.024;2023-06-26T10:25:31;100187.94;;;33.97;21.33
22031;BME280;11179;52.106;21.024;2023-06-26T10:27:58;100184.78;;;33.88;21.73
22031;BME280;11179;52.106;21.024;2023-06-26T10:30:28;100191.63;;;33.50;21.94
22031;BME280;11179;52.106;21.024;2023-06-26T10:32:54;100194.31;;;33.12;22.36
22031;BME280;11179;52.106;21.024;2023-06-26T10:35:21;100186.81;;;32.63;23.14
22031;BME280;11179;52.106;21.024;2023-06-26T10:37:48;100183.28;;;32.34;23.28
22031;BME280;11179;52.106;21.024;2023-06-26T10:40:17;100180.75;;;32.54;23.82
22031;BME280;11179;52.106;21.024;2023-06-26T10:42:45;100183.13;;;32.66;23.42
22031;BME280;11179;52.106;21.024;2023-06-26T10:45:13;100170.94;;;32.73;23.57
22031;BME280;11179;52.106;21.024;2023-06-26T10:47:40;100163.50;;;33.00;23.56
22031;BME280;11179;52.106;21.024;2023-06-26T10:50:28;100159.81;;;33.03;22.35
22031;BME280;11179;52.106;21.024;2023-06-26T10:53:14;100160.50;;;33.18;22.89
22031;BME280;11179;52.106;21.024;2023-06-26T10:55:54;100159.06;;;32.92;23.17
22031;BME280;11179;52.106;21.024;2023-06-26T11:01:14;100165.38;;;32.44;23.34
22031;BME280;11179;52.106;21.024;2023-06-26T11:03:46;100160.94;;;32.36;23.71
22031;BME280;11179;52.106;21.024;2023-06-26T11:06:19;100154.47;;;32.36;23.30
22031;BME280;11179;52.106;21.024;2023-06-26T11:08:47;100156.41;;;32.53;23.68
22031;BME280;11179;52.106;21.024;2023-06-26T11:11:12;100155.88;;;32.83;23.82
22031;BME280;11179;52.106;21.024;2023-06-26T11:13:39;100154.50;;;33.09;23.92
22031;BME280;11179;52.106;21.024;2023-06-26T11:16:05;100147.41;;;33.34;23.63
22031;BME280;11179;52.106;21.024;2023-06-26T11:18:31;100144.19;;;33.32;22.88
22031;BME280;11179;52.106;21.024;2023-06-26T11:21:05;100142.72;;;33.03;22.38
22031;BME280;11179;52.106;21.024;2023-06-26T11:23:32;100147.81;;;32.67;22.99
22031;BME280;11179;52.106;21.024;2023-06-26T11:26:12;100130.28;;;32.86;22.71
22031;BME280;11179;52.106;21.024;2023-06-26T11:28:38;100144.94;;;32.74;22.94
22031;BME280;11179;52.106;21.024;2023-06-26T11:31:03;100139.81;;;32.41;23.03
22031;BME280;11179;52.106;21.024;2023-06-26T11:33:29;100144.78;;;32.08;23.59
22031;BME280;11179;52.106;21.024;2023-06-26T11:35:54;100144.81;;;31.73;23.63
22031;BME280;11179;52.106;21.024;2023-06-26T11:38:19;100144.03;;;31.37;23.81
22031;BME280;11179;52.106;21.024;2023-06-26T11:40:45;100139.53;;;31.21;24.30
22031;BME280;11179;52.106;21.024;2023-06-26T11:43:10;100129.38;;;30.99;24.43
22031;BME280;11179;52.106;21.024;2023-06-26T11:45:35;100134.63;;;30.86;25.09
22031;BME280;11179;52.106;21.024;2023-06-26T11:48:01;100134.22;;;30.84;25.45
22031;BME280;11179;52.106;21.024;2023-06-26T11:50:27;100125.34;;;31.07;25.31
22031;BME280;11179;52.106;21.024;2023-06-26T11:52:57;100126.59;;;31.49;24.72
22031;BME280;11179;52.106;21.024;2023-06-26T11:55:24;100129.84;;;31.79;24.46
22031;BME280;11179;52.106;21.024;2023-06-26T11:57:50;100124.94;;;31.73;24.37
22031;BME280;11179;52.106;21.024;2023-06-26T12:00:16;100132.28;;;31.49;24.13
22031;BME280;11179;52.106;21.024;2023-06-26T12:02:44;100122.50;;;31.18;24.36
22031;BME280;11179;52.106;21.024;2023-06-26T12:05:10;100124.94;;;31.16;24.38
22031;BME280;11179;52.106;21.024;2023-06-26T12:07:36;100114.41;;;31.13;24.32
22031;BME280;11179;52.106;21.024;2023-06-26T12:10:03;100121.28;;;31.19;23.81
22031;BME280;11179;52.106;21.024;2023-06-26T12:12:30;100116.88;;;31.25;24.30
22031;BME280;11179;52.106;21.024;2023-06-26T12:14:56;100099.88;;;31.29;24.61
22031;BME280;11179;52.106;21.024;2023-06-26T12:17:23;100099.84;;;31.43;24.47
22031;BME280;11179;52.106;21.024;2023-06-26T12:19:50;100099.84;;;31.39;24.05
22031;BME280;11179;52.106;21.024;2023-06-26T12:22:17;100106.34;;;31.36;23.67
22031;BME280;11179;52.106;21.024;2023-06-26T12:24:43;100092.56;;;31.35;24.26
22031;BME280;11179;52.106;21.024;2023-06-26T12:27:10;100090.53;;;31.32;23.88
22031;BME280;11179;52.106;21.024;2023-06-26T12:29:36;100098.59;;;31.22;24.19
22031;BME280;11179;52.106;21.024;2023-06-26T12:32:02;100096.56;;;31.16;24.54
22031;BME280;11179;52.106;21.024;2023-06-26T12:34:31;100100.69;;;31.25;24.30
22031;BME280;11179;52.106;21.024;2023-06-26T12:37:04;100090.94;;;31.37;23.43
22031;BME280;11179;52.106;21.024;2023-06-26T12:39:29;100094.16;;;31.11;22.80